createdAt,value
2023-04-10T00:01:46.328Z,102220.28
2023-04-10T00:04:12.882Z,102207.03
2023-04-10T00:06:40.937Z,102216.00
2023-04-10T00:09:08.138Z,102199.75
2023-04-10T00:11:34.562Z,102206.81
2023-04-10T00:14:01.114Z,102190.16
2023-04-10T00:16:27.588Z,102199.13
2023-04-10T00:18:54.041Z,102204.03
2023-04-10T00:21:20.750Z,102194.00
2023-04-10T00:23:47.149Z,102194.63
2023-04-10T00:26:13.551Z,102198.66
2023-04-10T00:28:41.540Z,102190.59
2023-04-10T00:31:07.941Z,102194.19
2023-04-10T00:33:34.340Z,102185.03
2023-04-10T00:36:01.191Z,102177.56
2023-04-10T00:38:28.714Z,102179.50
2023-04-10T00:40:55.277Z,102183.31
2023-04-10T00:43:22.050Z,102182.47
2023-04-10T00:45:49.972Z,102181.81
2023-04-10T00:48:17.793Z,102179.03
2023-04-10T00:50:46.223Z,102173.50
2023-04-10T00:53:12.615Z,102174.75
2023-04-10T00:55:39.293Z,102184.16
2023-04-10T00:58:05.774Z,102171.34
2023-04-10T01:00:32.210Z,102173.25
2023-04-10T01:03:01.321Z,102166.03
2023-04-10T01:05:35.257Z,102173.69
2023-04-10T01:08:36.518Z,102169.19
2023-04-10T01:11:13.469Z,102163.22
2023-04-10T01:13:49.898Z,102162.19
2023-04-10T01:16:23.231Z,102167.06
2023-04-10T01:19:18.813Z,102166.66
2023-04-10T01:21:45.858Z,102169.63
2023-04-10T01:24:31.506Z,102167.47
2023-04-10T01:27:56.612Z,102167.88
2023-04-10T01:30:23.228Z,102179.19
2023-04-10T01:32:53.694Z,102173.38
2023-04-10T01:35:21.368Z,102179.56
2023-04-10T01:37:50.595Z,102174.88
2023-04-10T01:40:20.984Z,102169.13
2023-04-10T01:42:56.715Z,102168.91
2023-04-10T01:45:29.891Z,102167.63
2023-04-10T01:47:56.642Z,102167.81
2023-04-10T01:50:24.472Z,102169.94
2023-04-10T01:52:54.646Z,102168.84
2023-04-10T01:55:27.511Z,102161.41
2023-04-10T01:58:05.872Z,102159.03
2023-04-10T02:00:42.980Z,102162.22
2023-04-10T02:03:11.298Z,102165.19
2023-04-10T02:06:02.413Z,102167.28
2023-04-10T02:08:37.548Z,102168.34
2023-04-10T02:11:17.579Z,102167.94
2023-04-10T02:13:44.211Z,102166.19
2023-04-10T02:16:14.340Z,102163.41
2023-04-10T02:18:41.188Z,102159.56
2023-04-10T02:21:08.257Z,102155.34
2023-04-10T02:23:35.927Z,102167.19
2023-04-10T02:26:09.188Z,102159.75
2023-04-10T02:28:39.302Z,102156.34
2023-04-10T02:31:07.508Z,102158.47
2023-04-10T02:33:33.945Z,102164.25
2023-04-10T02:36:01.341Z,102162.50
2023-04-10T02:38:28.619Z,102159.53
2023-04-10T02:40:55.326Z,102161.47
2023-04-10T02:43:21.824Z,102163.16
2023-04-10T02:45:48.242Z,102161.03
2023-04-10T02:48:20.895Z,102168.28
2023-04-10T02:50:57.681Z,102160.13
2023-04-10T02:53:25.959Z,102170.38
2023-04-10T02:55:56.280Z,102169.28
2023-04-10T02:58:22.741Z,102169.19
2023-04-10T03:00:52.157Z,102171.34
2023-04-10T03:03:25.575Z,102175.63
2023-04-10T03:05:54.903Z,102175.38
2023-04-10T03:08:31.071Z,102174.03
2023-04-10T03:10:57.460Z,102178.47
2023-04-10T03:13:23.886Z,102177.63
2023-04-10T03:15:50.378Z,102173.75
2023-04-10T03:18:16.970Z,102176.81
2023-04-10T03:20:45.417Z,102173.69
2023-04-10T03:23:11.977Z,102167.72
2023-04-10T03:25:38.533Z,102160.34
2023-04-10T03:28:06.940Z,102165.38
2023-04-10T03:30:35.272Z,102160.47
2023-04-10T03:33:02.572Z,102159.81
2023-04-10T03:35:29.444Z,102165.50
2023-04-10T03:37:55.843Z,102167.28
2023-04-10T03:40:22.524Z,102163.50
2023-04-10T03:42:48.978Z,102162.00
2023-04-10T03:45:15.566Z,102155.69
2023-04-10T03:47:42.018Z,102156.50
2023-04-10T03:50:10.547Z,102164.34
2023-04-10T03:52:45.363Z,102156.84
2023-04-10T03:55:19.061Z,102161.91
2023-04-10T03:57:47.182Z,102156.78
2023-04-10T04:00:15.675Z,102154.22
2023-04-10T04:02:50.863Z,102151.56
2023-04-10T04:05:36.423Z,102154.72
2023-04-10T04:08:23.771Z,102160.47
2023-04-10T04:11:08.719Z,102160.66
2023-04-10T04:13:44.003Z,102158.56
2023-04-10T04:16:24.041Z,102157.72
2023-04-10T04:18:56.419Z,102160.47
2023-04-10T04:21:31.451Z,102161.31
2023-04-10T04:24:08.991Z,102160.06
2023-04-10T04:26:53.862Z,102160.72
2023-04-10T04:29:34.672Z,102160.06
2023-04-10T04:32:30.544Z,102162.44
2023-04-10T04:35:14.248Z,102159.66
2023-04-10T04:38:06.549Z,102164.97
2023-04-10T04:40:50.736Z,102161.59
2023-04-10T04:43:41.141Z,102163.09
2023-04-10T04:46:23.583Z,102164.78
2023-04-10T04:48:58.859Z,102164.78
2023-04-10T04:51:33.158Z,102155.44
2023-04-10T04:54:05.057Z,102160.38
2023-04-10T04:56:40.579Z,102165.25
2023-04-10T04:59:16.098Z,102167.19
2023-04-10T05:01:55.886Z,102165.09
2023-04-10T05:04:57.955Z,102165.19
2023-04-10T05:07:44.832Z,102167.97
2023-04-10T05:10:38.949Z,102162.88
2023-04-10T05:13:30.488Z,102167.13
2023-04-10T05:16:15.698Z,102170.31
2023-04-10T05:18:56.109Z,102174.59
2023-04-10T05:21:51.629Z,102169.59
2023-04-10T05:24:41.020Z,102174.34
2023-04-10T05:27:13.705Z,102173.63
2023-04-10T05:29:58.639Z,102174.38
2023-04-10T05:32:37.004Z,102172.47
2023-04-10T05:35:24.935Z,102181.19
2023-04-10T05:38:11.689Z,102171.53
2023-04-10T05:40:45.786Z,102172.16
2023-04-10T05:43:32.225Z,102171.78
2023-04-10T05:46:13.372Z,102169.25
2023-04-10T05:48:56.634Z,102168.06
2023-04-10T05:51:37.005Z,102165.38
2023-04-10T05:54:18.019Z,102170.53
2023-04-10T05:56:53.578Z,102159.88
2023-04-10T05:59:38.784Z,102159.81
2023-04-10T06:02:21.799Z,102160.19
2023-04-10T06:04:48.960Z,102157.53
2023-04-10T06:07:16.201Z,102160.66
2023-04-10T06:09:42.627Z,102159.03
2023-04-10T06:12:09.977Z,102154.88
2023-04-10T06:14:38.545Z,102156.56
2023-04-10T06:17:05.699Z,102153.75
2023-04-10T06:19:32.275Z,102156.66
2023-04-10T06:21:58.672Z,102155.34
2023-04-10T06:24:25.337Z,102151.03
2023-04-10T06:26:51.827Z,102151.38
2023-04-10T06:29:18.254Z,102154.78
2023-04-10T06:31:44.773Z,102146.44
2023-04-10T06:34:11.881Z,102144.88
2023-04-10T06:36:46.954Z,102144.44
2023-04-10T06:39:13.653Z,102141.69
2023-04-10T06:41:40.062Z,102141.78
2023-04-10T06:44:16.046Z,102143.50
2023-04-10T06:46:42.491Z,102147.09
2023-04-10T06:49:08.926Z,102150.09
2023-04-10T06:51:35.316Z,102153.22
2023-04-10T06:54:01.720Z,102147.91
2023-04-10T06:56:28.584Z,102149.47
2023-04-10T06:58:55.189Z,102150.84
2023-04-10T07:01:21.917Z,102143.00
2023-04-10T07:03:48.447Z,102142.53
2023-04-10T07:06:14.873Z,102141.28
2023-04-10T07:08:41.280Z,102144.53
2023-04-10T07:11:07.725Z,102144.91
2023-04-10T07:13:35.608Z,102148.78
2023-04-10T07:16:02.145Z,102143.75
2023-04-10T07:18:28.610Z,102148.84
2023-04-10T07:20:55.033Z,102144.03
2023-04-10T07:23:22.525Z,102143.03
2023-04-10T07:25:48.961Z,102145.00
2023-04-10T07:28:15.375Z,102142.31
2023-04-10T07:30:42.046Z,102148.19
2023-04-10T07:33:08.635Z,102137.47
2023-04-10T07:35:35.242Z,102141.03
2023-04-10T07:38:01.782Z,102138.31
2023-04-10T07:40:28.278Z,102137.44
2023-04-10T07:42:54.691Z,102135.81
2023-04-10T07:45:21.145Z,102139.44
2023-04-10T07:47:47.690Z,102143.94
2023-04-10T07:50:14.153Z,102144.06
2023-04-10T07:52:40.556Z,102136.72
2023-04-10T07:55:07.040Z,102134.88
2023-04-10T07:57:33.455Z,102134.97
2023-04-10T07:59:59.858Z,102131.59
2023-04-10T08:02:26.512Z,102133.91
2023-04-10T08:04:53.154Z,102122.56
2023-04-10T08:07:21.618Z,102131.44
2023-04-10T08:09:48.141Z,102128.91
2023-04-10T08:12:14.523Z,102115.53
2023-04-10T08:14:40.906Z,102118.44
2023-04-10T08:17:14.312Z,102120.38
2023-04-10T08:19:42.053Z,102117.44
2023-04-10T08:22:08.661Z,102113.84
2023-04-10T08:24:35.137Z,102109.13
2023-04-10T08:27:01.654Z,102109.81
2023-04-10T08:29:28.050Z,102111.00
2023-04-10T08:31:55.584Z,102104.00
2023-04-10T08:34:24.294Z,102096.97
2023-04-10T08:36:50.690Z,102100.16
2023-04-10T08:39:17.089Z,102097.63
2023-04-10T08:41:43.769Z,102091.47
2023-04-10T08:44:10.654Z,102090.88
2023-04-10T08:46:43.253Z,102097.38
2023-04-10T08:49:15.431Z,102083.00
2023-04-10T08:51:47.948Z,102085.00
2023-04-10T08:54:27.496Z,102086.97
2023-04-10T08:56:55.952Z,102079.66
2023-04-10T08:59:22.747Z,102082.44
2023-04-10T09:01:49.307Z,102079.09
2023-04-10T09:04:17.856Z,102074.53
2023-04-10T09:06:44.421Z,102067.81
2023-04-10T09:09:10.973Z,102063.22
2023-04-10T09:11:56.002Z,102060.97
2023-04-10T09:14:32.563Z,102058.13
2023-04-10T09:17:12.938Z,102051.09
2023-04-10T09:19:39.494Z,102046.28
2023-04-10T09:22:06.056Z,102042.34
2023-04-10T09:24:37.413Z,102038.41
2023-04-10T09:27:04.349Z,102037.81
2023-04-10T09:29:43.193Z,102040.06
2023-04-10T09:32:10.132Z,102042.03
2023-04-10T09:34:52.358Z,102030.81
2023-04-10T09:37:20.756Z,102028.06
2023-04-10T09:39:47.163Z,102025.84
2023-04-10T09:42:14.791Z,102015.22
2023-04-10T09:44:42.221Z,102016.41
2023-04-10T09:47:14.745Z,102016.38
2023-04-10T09:49:52.524Z,102012.00
2023-04-10T09:52:20.450Z,102004.38
2023-04-10T09:54:46.915Z,102000.50
2023-04-10T09:57:21.427Z,102000.53
2023-04-10T09:59:56.612Z,101990.22
2023-04-10T10:02:25.756Z,102000.97
2023-04-10T10:04:52.945Z,101990.81
2023-04-10T10:07:21.145Z,101983.63
2023-04-10T10:09:49.156Z,101977.16
2023-04-10T10:12:37.946Z,101977.84
2023-04-10T10:15:16.423Z,101973.88
2023-04-10T10:17:49.383Z,101966.81
2023-04-10T10:20:18.239Z,101962.16
2023-04-10T10:22:46.408Z,101962.06
2023-04-10T10:25:13.152Z,101956.63
2023-04-10T10:27:41.554Z,101952.59
2023-04-10T10:30:25.408Z,101946.31
2023-04-10T10:32:56.076Z,101940.78
2023-04-10T10:35:25.157Z,101943.56
2023-04-10T10:37:52.938Z,101939.44
2023-04-10T10:40:37.625Z,101934.00
2023-04-10T10:43:14.808Z,101924.88
2023-04-10T10:45:52.364Z,101928.28
2023-04-10T10:48:18.857Z,101925.88
2023-04-10T10:50:57.854Z,101923.41
2023-04-10T10:53:36.388Z,101915.53
2023-04-10T10:56:22.487Z,101909.91
2023-04-10T10:58:50.777Z,101905.72
2023-04-10T11:01:18.208Z,101901.50
2023-04-10T11:03:45.482Z,101902.94
2023-04-10T11:06:15.386Z,101895.50
2023-04-10T11:08:46.567Z,101891.69
2023-04-10T11:11:20.056Z,101892.31
2023-04-10T11:13:52.403Z,101877.19
2023-04-10T11:16:20.384Z,101878.44
2023-04-10T11:18:51.208Z,101873.41
2023-04-10T11:21:23.447Z,101876.94
2023-04-10T11:23:49.788Z,101874.44
2023-04-10T11:26:43.723Z,101863.59
2023-04-10T11:29:16.124Z,101854.25
2023-04-10T11:31:44.545Z,101856.63
2023-04-10T11:34:11.805Z,101853.25
2023-04-10T11:36:40.718Z,101847.84
2023-04-10T11:39:15.956Z,101847.00
2023-04-10T11:41:44.269Z,101838.47
2023-04-10T11:44:12.873Z,101830.94
2023-04-10T11:46:41.307Z,101841.31
2023-04-10T11:49:09.799Z,101830.44
2023-04-10T11:51:37.741Z,101830.22
2023-04-10T11:54:05.450Z,101818.09
2023-04-10T11:56:31.847Z,101816.97
2023-04-10T11:58:58.296Z,101808.44
2023-04-10T12:01:24.954Z,101812.50
2023-04-10T12:03:51.693Z,101808.75
2023-04-10T12:06:19.598Z,101807.13
2023-04-10T12:08:49.287Z,101801.88
2023-04-10T12:11:18.728Z,101800.28
2023-04-10T12:13:45.220Z,101784.03
2023-04-10T12:16:12.426Z,101771.78
2023-04-10T12:18:39.662Z,101774.78
2023-04-10T12:21:08.538Z,101778.97
2023-04-10T12:23:38.337Z,101777.97
2023-04-10T12:26:16.558Z,101772.03
2023-04-10T12:28:52.503Z,101767.13
2023-04-10T12:31:28.093Z,101762.28
2023-04-10T12:33:57.855Z,101762.41
2023-04-10T12:36:29.439Z,101752.53
2023-04-10T12:39:00.366Z,101750.13
2023-04-10T12:41:28.379Z,101741.38
2023-04-10T12:44:10.989Z,101735.84
2023-04-10T12:46:38.532Z,101727.47
2023-04-10T12:49:13.143Z,101727.31
2023-04-10T12:51:49.278Z,101721.47
2023-04-10T12:54:35.349Z,101715.25
2023-04-10T12:57:03.843Z,101718.63
2023-04-10T12:59:31.258Z,101719.56
2023-04-10T13:02:13.538Z,101710.03
2023-04-10T13:04:42.613Z,101702.78
2023-04-10T13:07:09.095Z,101696.16
2023-04-10T13:09:35.491Z,101688.50
2023-04-10T13:12:03.860Z,101672.22
2023-04-10T13:14:30.481Z,101670.84
2023-04-10T13:16:59.937Z,101670.03
2023-04-10T13:19:27.048Z,101663.09
2023-04-10T13:21:56.339Z,101659.09
2023-04-10T13:24:22.734Z,101661.03
2023-04-10T13:26:49.155Z,101646.75
2023-04-10T13:29:15.670Z,101641.81
2023-04-10T13:31:42.129Z,101637.63
2023-04-10T13:34:21.168Z,101631.00
2023-04-10T13:36:48.557Z,101632.25
2023-04-10T13:39:14.960Z,101627.03
2023-04-10T13:41:41.364Z,101620.53
2023-04-10T13:44:07.754Z,101614.63
2023-04-10T13:46:34.218Z,101609.16
2023-04-10T13:49:00.782Z,101610.22
2023-04-10T13:51:27.849Z,101607.09
2023-04-10T13:53:54.310Z,101595.44
2023-04-10T13:56:21.068Z,101596.81
2023-04-10T13:58:49.143Z,101590.31
2023-04-10T14:01:15.653Z,101585.59
2023-04-10T14:03:42.270Z,101586.63
2023-04-10T14:06:11.736Z,101578.78
2023-04-10T14:08:38.196Z,101581.28
2023-04-10T14:11:04.663Z,101576.16
2023-04-10T14:13:31.076Z,101572.50
2023-04-10T14:15:57.532Z,101576.63
2023-04-10T14:18:23.978Z,101567.13
2023-04-10T14:20:50.375Z,101559.31
2023-04-10T14:23:19.608Z,101561.34
2023-04-10T14:25:46.768Z,101554.91
2023-04-10T14:28:19.454Z,101551.91
2023-04-10T14:30:48.277Z,101545.69
2023-04-10T14:33:15.181Z,101540.69
2023-04-10T14:35:41.699Z,101536.16
2023-04-10T14:38:08.166Z,101540.66
2023-04-10T14:40:34.654Z,101533.41
2023-04-10T14:43:01.089Z,101530.88
2023-04-10T14:45:27.818Z,101527.53
2023-04-10T14:47:54.489Z,101512.69
2023-04-10T14:50:21.034Z,101520.38
2023-04-10T14:52:47.461Z,101522.28
2023-04-10T14:55:13.861Z,101510.16
2023-04-10T14:57:40.422Z,101507.47
2023-04-10T15:00:07.413Z,101506.25
2023-04-10T15:02:33.939Z,101496.81
2023-04-10T15:05:00.413Z,101486.63
2023-04-10T15:07:28.309Z,101487.81
2023-04-10T15:09:58.530Z,101484.69
2023-04-10T15:12:25.244Z,101493.81
2023-04-10T15:14:52.058Z,101481.06
2023-04-10T15:17:22.277Z,101478.84
2023-04-10T15:19:48.987Z,101483.22
2023-04-10T15:22:15.851Z,101480.50
2023-04-10T15:24:50.009Z,101478.69
2023-04-10T15:27:19.107Z,101466.38
2023-04-10T15:29:45.516Z,101458.28
2023-04-10T15:32:11.918Z,101448.16
2023-04-10T15:34:38.361Z,101442.41
2023-04-10T15:37:04.774Z,101442.47
2023-04-10T15:39:31.170Z,101434.75
2023-04-10T15:42:00.048Z,101428.91
2023-04-10T15:44:26.770Z,101427.84
2023-04-10T15:49:29.727Z,101415.63
2023-04-10T15:52:00.730Z,101411.94
2023-04-10T15:54:27.132Z,101408.31
2023-04-10T15:56:53.529Z,101403.09
2023-04-10T15:59:19.977Z,101398.91
2023-04-10T16:01:46.473Z,101388.66
2023-04-10T16:04:13.075Z,101386.94
2023-04-10T16:06:39.607Z,101383.75
2023-04-10T16:09:18.361Z,101373.59
2023-04-10T16:11:51.000Z,101376.91
2023-04-10T16:14:18.915Z,101365.59
2023-04-10T16:16:45.667Z,101366.88
2023-04-10T16:19:12.102Z,101366.34
2023-04-10T16:21:38.508Z,101365.00
2023-04-10T16:24:05.214Z,101359.56
2023-04-10T16:26:31.617Z,101356.94
2023-04-10T16:28:58.050Z,101361.13
2023-04-10T16:31:24.711Z,101358.59
2023-04-10T16:33:51.163Z,101359.41
2023-04-10T16:36:17.568Z,101352.38
2023-04-10T16:38:44.538Z,101345.03
2023-04-10T16:41:12.354Z,101342.00
2023-04-10T16:43:38.987Z,101339.81
2023-04-10T16:46:05.812Z,101341.28
2023-04-10T16:48:51.941Z,101337.28
2023-04-10T16:51:18.571Z,101323.88
2023-04-10T16:53:45.075Z,101319.78
2023-04-10T16:56:11.521Z,101313.56
2023-04-10T16:58:38.167Z,101303.28
2023-04-10T17:01:25.192Z,101300.69
2023-04-10T17:03:52.034Z,101287.34
2023-04-10T17:06:18.468Z,101291.31
2023-04-10T17:08:45.552Z,101283.38
2023-04-10T17:11:15.878Z,101282.50
2023-04-10T17:13:42.366Z,101284.38
2023-04-10T17:16:09.539Z,101276.03
2023-04-10T17:18:36.055Z,101273.28
2023-04-10T17:21:02.474Z,101271.91
2023-04-10T17:23:29.447Z,101267.72
2023-04-10T17:25:55.848Z,101260.78
2023-04-10T17:28:22.308Z,101255.34
2023-04-10T17:30:48.723Z,101254.56
2023-04-10T17:33:15.326Z,101250.63
2023-04-10T17:35:42.067Z,101238.63
2023-04-10T17:38:08.549Z,101239.13
2023-04-10T17:40:35.117Z,101241.44
2023-04-10T17:43:01.599Z,101230.25
2023-04-10T17:45:28.040Z,101235.53
2023-04-10T17:47:54.542Z,101235.03
2023-04-10T17:50:21.047Z,101217.66
2023-04-10T17:52:47.447Z,101231.13
2023-04-10T17:55:18.335Z,101222.00
2023-04-10T17:57:47.033Z,101217.91
2023-04-10T18:00:15.570Z,101218.00
2023-04-10T18:02:42.975Z,101222.28
2023-04-10T18:05:09.619Z,101218.75
2023-04-10T18:07:37.425Z,101217.69
2023-04-10T18:10:05.120Z,101209.81
2023-04-10T18:12:59.277Z,101215.13
2023-04-10T18:15:47.401Z,101216.03
2023-04-10T18:22:06.904Z,101210.16
2023-04-10T18:24:59.501Z,101216.63
2023-04-10T18:28:13.959Z,101212.59
2023-04-10T18:30:41.362Z,101218.91
2023-04-10T18:33:10.878Z,101210.22
2023-04-10T18:35:38.360Z,101206.94
2023-04-10T18:38:04.805Z,101201.13
2023-04-10T18:40:31.240Z,101200.00
2023-04-10T18:42:59.721Z,101196.44
2023-04-10T18:45:29.276Z,101193.06
2023-04-10T18:47:55.770Z,101193.38
2023-04-10T18:50:22.285Z,101187.34
2023-04-10T18:52:48.805Z,101174.47
2023-04-10T18:55:15.934Z,101171.16
2023-04-10T18:57:42.365Z,101168.97
2023-04-10T19:00:11.351Z,101160.28
2023-04-10T19:02:37.862Z,101159.44
2023-04-10T19:05:04.598Z,101157.78
2023-04-10T19:07:32.284Z,101154.16
2023-04-10T19:09:58.761Z,101150.63
2023-04-10T19:12:25.185Z,101151.75
2023-04-10T19:14:51.619Z,101140.84
2023-04-10T19:17:19.596Z,101145.41
2023-04-10T19:19:46.140Z,101135.88
2023-04-10T19:22:13.326Z,101134.44
2023-04-10T19:24:39.723Z,101135.38
2023-04-10T19:27:06.380Z,101134.88
2023-04-10T19:29:32.785Z,101129.00
2023-04-10T19:31:59.197Z,101117.75
2023-04-10T19:34:25.778Z,101118.59
2023-04-10T19:36:52.174Z,101116.13
2023-04-10T19:39:18.570Z,101115.88
2023-04-10T19:41:44.967Z,101106.31
2023-04-10T19:44:11.378Z,101100.97
2023-04-10T19:46:37.863Z,101098.72
2023-04-10T19:49:04.348Z,101093.75
2023-04-10T19:51:32.250Z,101094.34
2023-04-10T19:53:59.052Z,101080.94
2023-04-10T19:56:27.648Z,101075.25
2023-04-10T19:58:54.141Z,101082.66
2023-04-10T20:01:26.685Z,101079.38
2023-04-10T20:03:53.307Z,101065.56
2023-04-10T20:06:21.406Z,101060.47
2023-04-10T20:08:47.799Z,101059.03
2023-04-10T20:11:14.196Z,101041.91
2023-04-10T20:13:41.332Z,101039.94
2023-04-10T20:16:08.098Z,101039.47
2023-04-10T20:18:34.725Z,101033.78
2023-04-10T20:21:01.223Z,101029.00
2023-04-10T20:23:27.665Z,101026.47
2023-04-10T20:25:54.098Z,101010.81
2023-04-10T20:28:20.764Z,101007.16
2023-04-10T20:30:47.202Z,101004.94
2023-04-10T20:33:13.596Z,101015.53
2023-04-10T20:35:40.082Z,101014.22
2023-04-10T20:38:06.558Z,101013.03
2023-04-10T20:40:33.204Z,101017.56
2023-04-10T20:42:59.582Z,101020.84
2023-04-10T20:45:25.992Z,101014.28
2023-04-10T20:47:52.425Z,101015.88
2023-04-10T20:50:18.823Z,101016.78
2023-04-10T20:52:45.367Z,101001.53
2023-04-10T20:55:11.875Z,100998.19
2023-04-10T20:57:38.327Z,100997.91
2023-04-10T21:00:05.353Z,100997.13
2023-04-10T21:02:31.873Z,100998.19
2023-04-10T21:04:59.572Z,100994.81
2023-04-10T21:07:25.996Z,100996.22
2023-04-10T21:09:52.422Z,100998.50
2023-04-10T21:12:19.742Z,100989.81
2023-04-10T21:14:46.203Z,100987.53
2023-04-10T21:17:12.662Z,100992.97
2023-04-10T21:19:39.098Z,100988.13
2023-04-10T21:22:05.620Z,100987.81
2023-04-10T21:24:32.065Z,100982.56
2023-04-10T21:26:58.502Z,100974.91
2023-04-10T21:29:24.950Z,100976.28
2023-04-10T21:31:51.366Z,100963.50
2023-04-10T21:34:17.808Z,100963.28
2023-04-10T21:36:44.207Z,100954.53
2023-04-10T21:39:10.786Z,100959.19
2023-04-10T21:41:38.281Z,100951.59
2023-04-10T21:44:05.695Z,100945.31
2023-04-10T21:46:32.347Z,100940.91
2023-04-10T21:48:58.885Z,100936.47
2023-04-10T21:51:26.956Z,100936.47
2023-04-10T21:53:53.510Z,100925.84
2023-04-10T21:56:19.988Z,100919.91
2023-04-10T21:58:46.437Z,100920.78
2023-04-10T22:01:13.013Z,100914.69
2023-04-10T22:03:39.645Z,100914.91
2023-04-10T22:06:06.327Z,100902.84
2023-04-10T22:08:32.754Z,100904.28
2023-04-10T22:10:59.178Z,100894.47
2023-04-10T22:13:30.798Z,100897.22
2023-04-10T22:15:57.683Z,100894.97
2023-04-10T22:18:24.097Z,100885.81
2023-04-10T22:20:50.806Z,100880.13
2023-04-10T22:23:17.325Z,100882.78
2023-04-10T22:25:43.735Z,100881.56
2023-04-10T22:28:10.236Z,100872.78
2023-04-10T22:30:36.674Z,100878.59
2023-04-10T22:33:03.169Z,100878.22
2023-04-10T22:35:29.714Z,100872.06
2023-04-10T22:37:56.959Z,100866.97
2023-04-10T22:40:23.504Z,100868.66
2023-04-10T22:42:50.635Z,100864.22
2023-04-10T22:45:17.121Z,100860.41
2023-04-10T22:47:43.535Z,100858.06
2023-04-10T22:50:10.123Z,100849.41
2023-04-10T22:52:36.540Z,100853.47
2023-04-10T22:55:06.710Z,100839.38
2023-04-10T22:57:33.678Z,100836.84
2023-04-10T23:00:00.725Z,100831.38
2023-04-10T23:02:27.558Z,100823.00
2023-04-10T23:04:54.270Z,100821.22
2023-04-10T23:07:20.714Z,100824.91
2023-04-10T23:09:47.122Z,100821.56
2023-04-10T23:12:13.551Z,100808.97
2023-04-10T23:14:39.964Z,100803.13
2023-04-10T23:17:06.400Z,100795.47
2023-04-10T23:19:32.807Z,100792.19
2023-04-10T23:21:59.200Z,100793.59
2023-04-10T23:24:25.604Z,100776.16
2023-04-10T23:26:52.012Z,100776.47
2023-04-10T23:29:18.416Z,100764.09
2023-04-10T23:31:44.862Z,100756.28
2023-04-10T23:34:11.313Z,100757.94
2023-04-10T23:36:37.718Z,100747.31
2023-04-10T23:39:04.169Z,100749.00
2023-04-10T23:41:30.645Z,100753.25
2023-04-10T23:43:57.064Z,100747.97
2023-04-10T23:46:23.494Z,100734.72
2023-04-10T23:48:49.992Z,100724.00
2023-04-10T23:51:16.389Z,100726.13
2023-04-10T23:53:43.027Z,100726.03
2023-04-10T23:56:09.764Z,100715.91
2023-04-10T23:58:36.186Z,100698.66
